sensor_id;sensor_type;location;lat;lon;timestamp;P1;durP1;ratioP1;P2;durP2;ratioP2
10847;SDS011;5477;48.806;9.154;2023-03-01T00:00:17;14.87;;;9.80;;
10847;SDS011;5477;48.806;9.154;2023-03-01T00:02:45;12.80;;;9.30;;
10847;SDS011;5477;48.806;9.154;2023-03-01T00:05:13;14.37;;;9.60;;
10847;SDS011;5477;48.806;9.154;2023-03-01T00:07:41;14.80;;;9.03;;
10847;SDS011;5477;48.806;9.154;2023-03-01T00:10:09;13.47;;;9.73;;
10847;SDS011;5477;48.806;9.154;2023-03-01T00:12:38;14.83;;;9.77;;
10847;SDS011;5477;48.806;9.154;2023-03-01T00:15:06;16.23;;;10.10;;
10847;SDS011;5477;48.806;9.154;2023-03-01T00:17:36;14.87;;;9.67;;
10847;SDS011;5477;48.806;9.154;2023-03-01T00:20:05;14.23;;;9.50;;
10847;SDS011;5477;48.806;9.154;2023-03-01T00:22:36;13.33;;;9.53;;
10847;SDS011;5477;48.806;9.154;2023-03-01T00:25:04;13.53;;;9.47;;
10847;SDS011;5477;48.806;9.154;2023-03-01T00:27:32;13.20;;;9.30;;
10847;SDS011;5477;48.806;9.154;2023-03-01T00:30:00;12.73;;;8.90;;
10847;SDS011;5477;48.806;9.154;2023-03-01T00:32:29;14.57;;;10.00;;
10847;SDS011;5477;48.806;9.154;2023-03-01T00:34:58;14.33;;;9.67;;
10847;SDS011;5477;48.806;9.154;2023-03-01T00:37:26;14.97;;;9.23;;
10847;SDS011;5477;48.806;9.154;2023-03-01T00:39:54;16.20;;;9.70;;
10847;SDS011;5477;48.806;9.154;2023-03-01T00:42:22;15.10;;;9.53;;
10847;SDS011;5477;48.806;9.154;2023-03-01T00:44:50;14.37;;;9.97;;
10847;SDS011;5477;48.806;9.154;2023-03-01T00:47:18;13.17;;;9.57;;
10847;SDS011;5477;48.806;9.154;2023-03-01T00:49:46;13.07;;;9.10;;
10847;SDS011;5477;48.806;9.154;2023-03-01T00:52:16;13.50;;;9.23;;
10847;SDS011;5477;48.806;9.154;2023-03-01T00:54:44;15.13;;;9.83;;
10847;SDS011;5477;48.806;9.154;2023-03-01T00:57:14;13.40;;;9.27;;
10847;SDS011;5477;48.806;9.154;2023-03-01T00:59:42;14.03;;;9.73;;
10847;SDS011;5477;48.806;9.154;2023-03-01T01:02:10;13.93;;;9.80;;
10847;SDS011;5477;48.806;9.154;2023-03-01T01:04:38;13.50;;;9.67;;
10847;SDS011;5477;48.806;9.154;2023-03-01T01:07:06;15.47;;;9.70;;
10847;SDS011;5477;48.806;9.154;2023-03-01T01:09:36;12.67;;;9.27;;
10847;SDS011;5477;48.806;9.154;2023-03-01T01:12:05;13.60;;;9.20;;
10847;SDS011;5477;48.806;9.154;2023-03-01T01:14:33;13.53;;;9.70;;
10847;SDS011;5477;48.806;9.154;2023-03-01T01:17:01;13.57;;;9.20;;
10847;SDS011;5477;48.806;9.154;2023-03-01T01:19:29;13.33;;;9.43;;
10847;SDS011;5477;48.806;9.154;2023-03-01T01:21:58;13.53;;;9.60;;
10847;SDS011;5477;48.806;9.154;2023-03-01T01:24:25;12.60;;;9.07;;
10847;SDS011;5477;48.806;9.154;2023-03-01T01:26:55;12.87;;;9.77;;
10847;SDS011;5477;48.806;9.154;2023-03-01T01:29:23;13.93;;;8.77;;
10847;SDS011;5477;48.806;9.154;2023-03-01T01:31:51;13.93;;;9.90;;
10847;SDS011;5477;48.806;9.154;2023-03-01T01:34:20;13.13;;;9.03;;
10847;SDS011;5477;48.806;9.154;2023-03-01T01:36:49;13.03;;;9.83;;
10847;SDS011;5477;48.806;9.154;2023-03-01T01:39:19;14.77;;;9.70;;
10847;SDS011;5477;48.806;9.154;2023-03-01T01:41:47;14.83;;;9.27;;
10847;SDS011;5477;48.806;9.154;2023-03-01T01:44:19;14.37;;;9.87;;
10847;SDS011;5477;48.806;9.154;2023-03-01T01:46:51;12.63;;;9.40;;
10847;SDS011;5477;48.806;9.154;2023-03-01T01:49:23;13.43;;;9.03;;
10847;SDS011;5477;48.806;9.154;2023-03-01T01:51:57;12.93;;;9.60;;
10847;SDS011;5477;48.806;9.154;2023-03-01T01:54:33;16.40;;;10.27;;
10847;SDS011;5477;48.806;9.154;2023-03-01T01:57:09;14.13;;;9.93;;
10847;SDS011;5477;48.806;9.154;2023-03-01T01:59:43;14.87;;;9.47;;
10847;SDS011;5477;48.806;9.154;2023-03-01T02:02:16;13.87;;;9.77;;
10847;SDS011;5477;48.806;9.154;2023-03-01T02:04:44;15.77;;;9.93;;
10847;SDS011;5477;48.806;9.154;2023-03-01T02:07:14;16.17;;;9.70;;
10847;SDS011;5477;48.806;9.154;2023-03-01T02:09:44;14.40;;;9.63;;
10847;SDS011;5477;48.806;9.154;2023-03-01T02:12:14;13.90;;;9.87;;
10847;SDS011;5477;48.806;9.154;2023-03-01T02:14:46;14.87;;;10.33;;
10847;SDS011;5477;48.806;9.154;2023-03-01T02:17:16;13.70;;;9.87;;
10847;SDS011;5477;48.806;9.154;2023-03-01T02:19:49;13.07;;;8.93;;
10847;SDS011;5477;48.806;9.154;2023-03-01T02:22:25;13.93;;;9.33;;
10847;SDS011;5477;48.806;9.154;2023-03-01T02:25:00;13.60;;;10.10;;
10847;SDS011;5477;48.806;9.154;2023-03-01T02:27:42;13.17;;;9.20;;
10847;SDS011;5477;48.806;9.154;2023-03-01T02:30:18;11.50;;;8.97;;
10847;SDS011;5477;48.806;9.154;2023-03-01T02:32:47;13.37;;;10.17;;
10847;SDS011;5477;48.806;9.154;2023-03-01T02:35:16;18.17;;;10.43;;
10847;SDS011;5477;48.806;9.154;2023-03-01T02:37:46;15.20;;;9.80;;
10847;SDS011;5477;48.806;9.154;2023-03-01T02:40:16;13.63;;;9.77;;
10847;SDS011;5477;48.806;9.154;2023-03-01T02:42:49;13.87;;;9.53;;
10847;SDS011;5477;48.806;9.154;2023-03-01T02:45:22;12.97;;;8.83;;
10847;SDS011;5477;48.806;9.154;2023-03-01T02:47:53;14.90;;;9.93;;
10847;SDS011;5477;48.806;9.154;2023-03-01T02:50:31;13.83;;;10.07;;
10847;SDS011;5477;48.806;9.154;2023-03-01T02:53:15;14.30;;;9.27;;
10847;SDS011;5477;48.806;9.154;2023-03-01T02:55:50;15.73;;;9.60;;
10847;SDS011;5477;48.806;9.154;2023-03-01T02:58:18;13.83;;;9.63;;
10847;SDS011;5477;48.806;9.154;2023-03-01T03:00:48;15.20;;;10.00;;
10847;SDS011;5477;48.806;9.154;2023-03-01T03:03:17;14.23;;;10.23;;
10847;SDS011;5477;48.806;9.154;2023-03-01T03:05:48;17.43;;;11.33;;
10847;SDS011;5477;48.806;9.154;2023-03-01T03:08:16;13.87;;;9.63;;
10847;SDS011;5477;48.806;9.154;2023-03-01T03:10:51;15.97;;;10.07;;
10847;SDS011;5477;48.806;9.154;2023-03-01T03:13:19;16.00;;;9.97;;
10847;SDS011;5477;48.806;9.154;2023-03-01T03:15:50;14.93;;;10.20;;
10847;SDS011;5477;48.806;9.154;2023-03-01T03:18:18;14.23;;;10.40;;
10847;SDS011;5477;48.806;9.154;2023-03-01T03:20:46;13.73;;;9.97;;
10847;SDS011;5477;48.806;9.154;2023-03-01T03:23:19;14.90;;;10.80;;
10847;SDS011;5477;48.806;9.154;2023-03-01T03:25:47;15.57;;;9.73;;
10847;SDS011;5477;48.806;9.154;2023-03-01T03:28:16;15.63;;;10.33;;
10847;SDS011;5477;48.806;9.154;2023-03-01T03:30:44;15.73;;;10.30;;
10847;SDS011;5477;48.806;9.154;2023-03-01T03:33:14;16.73;;;10.87;;
10847;SDS011;5477;48.806;9.154;2023-03-01T03:35:42;14.83;;;10.53;;
10847;SDS011;5477;48.806;9.154;2023-03-01T03:38:12;15.07;;;10.87;;
10847;SDS011;5477;48.806;9.154;2023-03-01T03:40:47;16.70;;;10.90;;
10847;SDS011;5477;48.806;9.154;2023-03-01T03:43:18;15.97;;;11.17;;
10847;SDS011;5477;48.806;9.154;2023-03-01T03:45:48;16.77;;;10.70;;
10847;SDS011;5477;48.806;9.154;2023-03-01T03:48:18;15.00;;;10.13;;
10847;SDS011;5477;48.806;9.154;2023-03-01T03:50:47;14.77;;;10.17;;
10847;SDS011;5477;48.806;9.154;2023-03-01T03:53:17;14.57;;;11.00;;
10847;SDS011;5477;48.806;9.154;2023-03-01T03:55:45;14.53;;;10.83;;
10847;SDS011;5477;48.806;9.154;2023-03-01T03:58:15;13.53;;;10.00;;
10847;SDS011;5477;48.806;9.154;2023-03-01T04:00:46;17.47;;;10.63;;
10847;SDS011;5477;48.806;9.154;2023-03-01T04:03:16;16.43;;;11.10;;
10847;SDS011;5477;48.806;9.154;2023-03-01T04:05:47;15.87;;;10.60;;
10847;SDS011;5477;48.806;9.154;2023-03-01T04:08:17;14.30;;;10.17;;
10847;SDS011;5477;48.806;9.154;2023-03-01T04:10:47;17.63;;;11.20;;
10847;SDS011;5477;48.806;9.154;2023-03-01T04:13:17;16.47;;;10.03;;
10847;SDS011;5477;48.806;9.154;2023-03-01T04:15:46;15.50;;;10.93;;
10847;SDS011;5477;48.806;9.154;2023-03-01T04:18:16;16.73;;;11.23;;
10847;SDS011;5477;48.806;9.154;2023-03-01T04:20:47;15.67;;;10.93;;
10847;SDS011;5477;48.806;9.154;2023-03-01T04:23:16;15.30;;;10.30;;
10847;SDS011;5477;48.806;9.154;2023-03-01T04:25:47;16.97;;;11.27;;
10847;SDS011;5477;48.806;9.154;2023-03-01T04:28:21;17.13;;;10.80;;
10847;SDS011;5477;48.806;9.154;2023-03-01T04:30:50;14.87;;;10.50;;
10847;SDS011;5477;48.806;9.154;2023-03-01T04:33:18;16.37;;;10.87;;
10847;SDS011;5477;48.806;9.154;2023-03-01T04:35:48;15.53;;;10.60;;
10847;SDS011;5477;48.806;9.154;2023-03-01T04:38:17;15.43;;;11.00;;
10847;SDS011;5477;48.806;9.154;2023-03-01T04:40:46;16.87;;;11.53;;
10847;SDS011;5477;48.806;9.154;2023-03-01T04:43:14;15.57;;;11.03;;
10847;SDS011;5477;48.806;9.154;2023-03-01T04:45:42;17.03;;;11.10;;
10847;SDS011;5477;48.806;9.154;2023-03-01T04:48:10;16.43;;;11.10;;
10847;SDS011;5477;48.806;9.154;2023-03-01T04:50:38;18.13;;;12.47;;
10847;SDS011;5477;48.806;9.154;2023-03-01T04:53:07;19.67;;;11.80;;
10847;SDS011;5477;48.806;9.154;2023-03-01T04:55:35;16.23;;;12.00;;
10847;SDS011;5477;48.806;9.154;2023-03-01T04:58:03;16.80;;;12.30;;
10847;SDS011;5477;48.806;9.154;2023-03-01T05:00:31;18.90;;;11.93;;
10847;SDS011;5477;48.806;9.154;2023-03-01T05:03:00;15.67;;;11.73;;
10847;SDS011;5477;48.806;9.154;2023-03-01T05:05:30;15.07;;;11.17;;
10847;SDS011;5477;48.806;9.154;2023-03-01T05:07:59;17.20;;;11.37;;
10847;SDS011;5477;48.806;9.154;2023-03-01T05:10:31;15.23;;;11.17;;
10847;SDS011;5477;48.806;9.154;2023-03-01T05:13:01;17.33;;;11.80;;
10847;SDS011;5477;48.806;9.154;2023-03-01T05:15:31;15.87;;;10.77;;
10847;SDS011;5477;48.806;9.154;2023-03-01T05:18:00;15.90;;;10.87;;
10847;SDS011;5477;48.806;9.154;2023-03-01T05:20:29;22.03;;;11.27;;
10847;SDS011;5477;48.806;9.154;2023-03-01T05:22:58;18.80;;;12.43;;
10847;SDS011;5477;48.806;9.154;2023-03-01T05:25:33;19.33;;;11.87;;
10847;SDS011;5477;48.806;9.154;2023-03-01T05:28:06;17.50;;;12.27;;
10847;SDS011;5477;48.806;9.154;2023-03-01T05:30:37;27.30;;;17.73;;
10847;SDS011;5477;48.806;9.154;2023-03-01T05:33:06;16.57;;;11.63;;
10847;SDS011;5477;48.806;9.154;2023-03-01T05:35:40;17.30;;;12.57;;
10847;SDS011;5477;48.806;9.154;2023-03-01T05:38:09;21.23;;;13.17;;
10847;SDS011;5477;48.806;9.154;2023-03-01T05:40:40;17.87;;;12.40;;
10847;SDS011;5477;48.806;9.154;2023-03-01T05:43:09;20.53;;;12.33;;
10847;SDS011;5477;48.806;9.154;2023-03-01T05:45:38;19.17;;;13.30;;
10847;SDS011;5477;48.806;9.154;2023-03-01T05:48:07;20.87;;;14.13;;
10847;SDS011;5477;48.806;9.154;2023-03-01T05:50:36;17.53;;;12.87;;
10847;SDS011;5477;48.806;9.154;2023-03-01T05:53:07;20.47;;;13.10;;
10847;SDS011;5477;48.806;9.154;2023-03-01T05:55:37;19.03;;;12.90;;
10847;SDS011;5477;48.806;9.154;2023-03-01T05:58:10;21.27;;;14.33;;
10847;SDS011;5477;48.806;9.154;2023-03-01T06:00:40;21.57;;;13.90;;
10847;SDS011;5477;48.806;9.154;2023-03-01T06:03:09;15.97;;;12.17;;
10847;SDS011;5477;48.806;9.154;2023-03-01T06:05:39;27.00;;;15.90;;
10847;SDS011;5477;48.806;9.154;2023-03-01T06:08:08;20.30;;;14.37;;
10847;SDS011;5477;48.806;9.154;2023-03-01T06:10:40;22.77;;;12.60;;
10847;SDS011;5477;48.806;9.154;2023-03-01T06:13:09;18.97;;;12.27;;
10847;SDS011;5477;48.806;9.154;2023-03-01T06:15:37;18.53;;;13.40;;
10847;SDS011;5477;48.806;9.154;2023-03-01T06:18:06;21.47;;;13.73;;
10847;SDS011;5477;48.806;9.154;2023-03-01T06:20:34;22.50;;;14.17;;
10847;SDS011;5477;48.806;9.154;2023-03-01T06:23:02;35.17;;;17.70;;
10847;SDS011;5477;48.806;9.154;2023-03-01T06:25:30;23.90;;;15.43;;
10847;SDS011;5477;48.806;9.154;2023-03-01T06:27:59;20.50;;;13.10;;
10847;SDS011;5477;48.806;9.154;2023-03-01T06:30:28;17.97;;;12.53;;
10847;SDS011;5477;48.806;9.154;2023-03-01T06:32:57;25.33;;;14.23;;
10847;SDS011;5477;48.806;9.154;2023-03-01T06:35:27;20.20;;;12.93;;
10847;SDS011;5477;48.806;9.154;2023-03-01T06:37:57;23.83;;;15.13;;
10847;SDS011;5477;48.806;9.154;2023-03-01T06:40:28;21.27;;;14.40;;
10847;SDS011;5477;48.806;9.154;2023-03-01T06:42:57;22.90;;;15.13;;
10847;SDS011;5477;48.806;9.154;2023-03-01T06:45:25;19.93;;;13.20;;
10847;SDS011;5477;48.806;9.154;2023-03-01T06:48:02;23.83;;;14.60;;
10847;SDS011;5477;48.806;9.154;2023-03-01T06:50:31;21.43;;;13.73;;
10847;SDS011;5477;48.806;9.154;2023-03-01T06:52:59;21.00;;;14.27;;
10847;SDS011;5477;48.806;9.154;2023-03-01T06:55:27;18.17;;;12.70;;
10847;SDS011;5477;48.806;9.154;2023-03-01T06:57:56;17.90;;;12.87;;
10847;SDS011;5477;48.806;9.154;2023-03-01T07:00:24;21.53;;;13.07;;
10847;SDS011;5477;48.806;9.154;2023-03-01T07:02:53;18.57;;;12.40;;
10847;SDS011;5477;48.806;9.154;2023-03-01T07:05:23;20.90;;;12.53;;
10847;SDS011;5477;48.806;9.154;2023-03-01T07:07:51;18.67;;;12.80;;
10847;SDS011;5477;48.806;9.154;2023-03-01T07:10:20;18.93;;;12.60;;
10847;SDS011;5477;48.806;9.154;2023-03-01T07:12:48;22.50;;;14.27;;
10847;SDS011;5477;48.806;9.154;2023-03-01T07:15:19;19.97;;;13.47;;
10847;SDS011;5477;48.806;9.154;2023-03-01T07:17:47;18.87;;;13.40;;
10847;SDS011;5477;48.806;9.154;2023-03-01T07:20:17;25.73;;;15.03;;
10847;SDS011;5477;48.806;9.154;2023-03-01T07:22:50;20.60;;;13.33;;
10847;SDS011;5477;48.806;9.154;2023-03-01T07:25:18;18.63;;;12.93;;
10847;SDS011;5477;48.806;9.154;2023-03-01T07:27:48;21.57;;;13.80;;
10847;SDS011;5477;48.806;9.154;2023-03-01T07:30:17;19.50;;;13.57;;
10847;SDS011;5477;48.806;9.154;2023-03-01T07:32:46;19.43;;;13.77;;
10847;SDS011;5477;48.806;9.154;2023-03-01T07:35:14;25.57;;;14.17;;
10847;SDS011;5477;48.806;9.154;2023-03-01T07:37:43;21.17;;;14.63;;
10847;SDS011;5477;48.806;9.154;2023-03-01T07:40:13;24.37;;;14.50;;
10847;SDS011;5477;48.806;9.154;2023-03-01T07:42:41;21.97;;;14.03;;
10847;SDS011;5477;48.806;9.154;2023-03-01T07:45:09;25.03;;;14.07;;
10847;SDS011;5477;48.806;9.154;2023-03-01T07:47:37;19.80;;;12.47;;
10847;SDS011;5477;48.806;9.154;2023-03-01T07:50:06;19.93;;;12.80;;
10847;SDS011;5477;48.806;9.154;2023-03-01T07:52:34;19.47;;;13.07;;
10847;SDS011;5477;48.806;9.154;2023-03-01T07:55:02;20.07;;;12.80;;
10847;SDS011;5477;48.806;9.154;2023-03-01T07:57:32;17.90;;;13.23;;
10847;SDS011;5477;48.806;9.154;2023-03-01T08:00:00;20.30;;;12.87;;
10847;SDS011;5477;48.806;9.154;2023-03-01T08:02:37;19.47;;;12.70;;
10847;SDS011;5477;48.806;9.154;2023-03-01T08:05:07;19.63;;;13.27;;
10847;SDS011;5477;48.806;9.154;2023-03-01T08:07:35;20.87;;;13.87;;
10847;SDS011;5477;48.806;9.154;2023-03-01T08:10:03;21.03;;;13.63;;
10847;SDS011;5477;48.806;9.154;2023-03-01T08:12:33;22.40;;;14.93;;
10847;SDS011;5477;48.806;9.154;2023-03-01T08:15:01;22.40;;;16.03;;
10847;SDS011;5477;48.806;9.154;2023-03-01T08:17:29;19.53;;;14.23;;
10847;SDS011;5477;48.806;9.154;2023-03-01T08:19:57;18.73;;;13.23;;
10847;SDS011;5477;48.806;9.154;2023-03-01T08:22:25;21.57;;;13.17;;
10847;SDS011;5477;48.806;9.154;2023-03-01T08:24:53;19.63;;;13.23;;
10847;SDS011;5477;48.806;9.154;2023-03-01T08:27:22;19.17;;;12.93;;
10847;SDS011;5477;48.806;9.154;2023-03-01T08:29:52;19.87;;;13.83;;
10847;SDS011;5477;48.806;9.154;2023-03-01T08:32:20;20.47;;;13.77;;
10847;SDS011;5477;48.806;9.154;2023-03-01T08:34:48;19.77;;;13.10;;
10847;SDS011;5477;48.806;9.154;2023-03-01T08:37:16;18.17;;;13.67;;
10847;SDS011;5477;48.806;9.154;2023-03-01T08:39:44;18.93;;;13.23;;
10847;SDS011;5477;48.806;9.154;2023-03-01T08:42:13;22.27;;;13.83;;
10847;SDS011;5477;48.806;9.154;2023-03-01T08:44:41;21.93;;;14.40;;
10847;SDS011;5477;48.806;9.154;2023-03-01T08:47:13;20.50;;;14.23;;
10847;SDS011;5477;48.806;9.154;2023-03-01T08:49:42;20.60;;;13.17;;
10847;SDS011;5477;48.806;9.154;2023-03-01T08:52:10;20.43;;;14.20;;
10847;SDS011;5477;48.806;9.154;2023-03-01T08:54:38;18.40;;;13.10;;
10847;SDS011;5477;48.806;9.154;2023-03-01T08:57:06;19.23;;;13.37;;
10847;SDS011;5477;48.806;9.154;2023-03-01T08:59:35;20.80;;;14.00;;
10847;SDS011;5477;48.806;9.154;2023-03-01T09:02:04;18.90;;;12.90;;
10847;SDS011;5477;48.806;9.154;2023-03-01T09:04:34;19.40;;;13.20;;
10847;SDS011;5477;48.806;9.154;2023-03-01T09:07:02;19.70;;;13.73;;
10847;SDS011;5477;48.806;9.154;2023-03-01T09:09:30;18.53;;;13.63;;
10847;SDS011;5477;48.806;9.154;2023-03-01T09:11:58;20.63;;;13.43;;
10847;SDS011;5477;48.806;9.154;2023-03-01T09:14:27;19.20;;;13.37;;
10847;SDS011;5477;48.806;9.154;2023-03-01T09:16:55;20.60;;;13.97;;
10847;SDS011;5477;48.806;9.154;2023-03-01T09:19:23;21.33;;;14.77;;
10847;SDS011;5477;48.806;9.154;2023-03-01T09:21:54;24.83;;;15.47;;
10847;SDS011;5477;48.806;9.154;2023-03-01T09:24:23;19.73;;;13.87;;
10847;SDS011;5477;48.806;9.154;2023-03-01T09:26:55;20.90;;;14.00;;
10847;SDS011;5477;48.806;9.154;2023-03-01T09:29:24;23.07;;;14.63;;
10847;SDS011;5477;48.806;9.154;2023-03-01T09:31:52;23.00;;;15.67;;
10847;SDS011;5477;48.806;9.154;2023-03-01T09:34:22;21.23;;;13.87;;
10847;SDS011;5477;48.806;9.154;2023-03-01T09:36:50;19.93;;;14.47;;
10847;SDS011;5477;48.806;9.154;2023-03-01T09:39:20;21.53;;;15.87;;
10847;SDS011;5477;48.806;9.154;2023-03-01T09:41:54;20.13;;;14.90;;
10847;SDS011;5477;48.806;9.154;2023-03-01T09:44:29;23.13;;;17.23;;
10847;SDS011;5477;48.806;9.154;2023-03-01T09:47:01;22.13;;;15.07;;
10847;SDS011;5477;48.806;9.154;2023-03-01T09:49:31;18.90;;;14.63;;
10847;SDS011;5477;48.806;9.154;2023-03-01T09:52:03;21.60;;;15.10;;
10847;SDS011;5477;48.806;9.154;2023-03-01T09:54:41;20.33;;;14.60;;
10847;SDS011;5477;48.806;9.154;2023-03-01T09:57:15;21.83;;;13.93;;
10847;SDS011;5477;48.806;9.154;2023-03-01T09:59:59;18.90;;;14.27;;
10847;SDS011;5477;48.806;9.154;2023-03-01T10:02:38;21.47;;;14.77;;
10847;SDS011;5477;48.806;9.154;2023-03-01T10:05:14;22.07;;;15.60;;
10847;SDS011;5477;48.806;9.154;2023-03-01T10:07:55;22.63;;;15.33;;
10847;SDS011;5477;48.806;9.154;2023-03-01T10:10:34;22.40;;;15.63;;
10847;SDS011;5477;48.806;9.154;2023-03-01T10:13:08;24.47;;;15.80;;
10847;SDS011;5477;48.806;9.154;2023-03-01T10:15:45;26.10;;;16.30;;
10847;SDS011;5477;48.806;9.154;2023-03-01T10:18:21;26.17;;;16.97;;
10847;SDS011;5477;48.806;9.154;2023-03-01T10:20:53;24.50;;;15.00;;
10847;SDS011;5477;48.806;9.154;2023-03-01T10:23:24;33.93;;;19.47;;
10847;SDS011;5477;48.806;9.154;2023-03-01T10:26:03;20.33;;;14.60;;
10847;SDS011;5477;48.806;9.154;2023-03-01T10:28:41;20.13;;;13.93;;
10847;SDS011;5477;48.806;9.154;2023-03-01T10:31:18;22.27;;;15.87;;
10847;SDS011;5477;48.806;9.154;2023-03-01T10:33:48;25.47;;;15.60;;
10847;SDS011;5477;48.806;9.154;2023-03-01T10:36:21;24.10;;;16.37;;
10847;SDS011;5477;48.806;9.154;2023-03-01T10:38:49;21.30;;;15.07;;
10847;SDS011;5477;48.806;9.154;2023-03-01T10:41:21;21.70;;;14.73;;
10847;SDS011;5477;48.806;9.154;2023-03-01T10:43:52;26.20;;;17.20;;
10847;SDS011;5477;48.806;9.154;2023-03-01T10:46:25;22.63;;;16.43;;
10847;SDS011;5477;48.806;9.154;2023-03-01T10:49:10;17.73;;;13.90;;
10847;SDS011;5477;48.806;9.154;2023-03-01T10:51:43;19.53;;;14.20;;
10847;SDS011;5477;48.806;9.154;2023-03-01T10:54:16;20.20;;;15.10;;
10847;SDS011;5477;48.806;9.154;2023-03-01T10:56:49;24.87;;;15.83;;
10847;SDS011;5477;48.806;9.154;2023-03-01T10:59:22;17.80;;;14.47;;
10847;SDS011;5477;48.806;9.154;2023-03-01T11:02:04;19.00;;;14.43;;
10847;SDS011;5477;48.806;9.154;2023-03-01T11:04:57;20.40;;;14.73;;
10847;SDS011;5477;48.806;9.154;2023-03-01T11:07:27;17.57;;;14.03;;
10847;SDS011;5477;48.806;9.154;2023-03-01T11:09:55;19.50;;;15.87;;
10847;SDS011;5477;48.806;9.154;2023-03-01T11:12:25;18.03;;;14.70;;
10847;SDS011;5477;48.806;9.154;2023-03-01T11:14:55;20.90;;;14.90;;
10847;SDS011;5477;48.806;9.154;2023-03-01T11:17:24;18.93;;;13.73;;
10847;SDS011;5477;48.806;9.154;2023-03-01T11:20:02;18.33;;;14.00;;
10847;SDS011;5477;48.806;9.154;2023-03-01T11:22:43;19.70;;;14.00;;
10847;SDS011;5477;48.806;9.154;2023-03-01T11:25:14;17.50;;;14.23;;
10847;SDS011;5477;48.806;9.154;2023-03-01T11:27:46;19.43;;;14.47;;
10847;SDS011;5477;48.806;9.154;2023-03-01T11:30:15;21.80;;;14.97;;
10847;SDS011;5477;48.806;9.154;2023-03-01T11:32:50;19.90;;;14.00;;
10847;SDS011;5477;48.806;9.154;2023-03-01T11:35:28;18.83;;;14.10;;
10847;SDS011;5477;48.806;9.154;2023-03-01T11:38:02;16.97;;;14.00;;
10847;SDS011;5477;48.806;9.154;2023-03-01T11:40:43;16.97;;;13.77;;
10847;SDS011;5477;48.806;9.154;2023-03-01T11:43:17;18.80;;;13.63;;
10847;SDS011;5477;48.806;9.154;2023-03-01T11:45:55;16.80;;;13.90;;
10847;SDS011;5477;48.806;9.154;2023-03-01T11:48:43;18.13;;;13.60;;
10847;SDS011;5477;48.806;9.154;2023-03-01T11:51:23;18.23;;;14.17;;
10847;SDS011;5477;48.806;9.154;2023-03-01T11:54:06;19.90;;;16.57;;
10847;SDS011;5477;48.806;9.154;2023-03-01T11:56:43;16.30;;;13.27;;
10847;SDS011;5477;48.806;9.154;2023-03-01T11:59:26;19.03;;;12.57;;
10847;SDS011;5477;48.806;9.154;2023-03-01T12:02:25;17.43;;;12.93;;
10847;SDS011;5477;48.806;9.154;2023-03-01T12:05:20;14.30;;;11.97;;
10847;SDS011;5477;48.806;9.154;2023-03-01T12:08:03;18.43;;;13.90;;
10847;SDS011;5477;48.806;9.154;2023-03-01T12:10:38;17.47;;;12.47;;
10847;SDS011;5477;48.806;9.154;2023-03-01T12:13:27;14.70;;;12.67;;
10847;SDS011;5477;48.806;9.154;2023-03-01T12:16:29;15.97;;;13.17;;
10847;SDS011;5477;48.806;9.154;2023-03-01T12:19:22;16.33;;;12.27;;
10847;SDS011;5477;48.806;9.154;2023-03-01T12:22:08;15.77;;;12.63;;
10847;SDS011;5477;48.806;9.154;2023-03-01T12:28:09;16.50;;;12.63;;
10847;SDS011;5477;48.806;9.154;2023-03-01T12:31:00;17.53;;;12.83;;
10847;SDS011;5477;48.806;9.154;2023-03-01T12:34:01;17.10;;;12.23;;
10847;SDS011;5477;48.806;9.154;2023-03-01T12:36:45;14.77;;;11.63;;
10847;SDS011;5477;48.806;9.154;2023-03-01T12:39:27;17.80;;;12.10;;
10847;SDS011;5477;48.806;9.154;2023-03-01T12:42:10;14.23;;;11.83;;
10847;SDS011;5477;48.806;9.154;2023-03-01T12:44:52;16.23;;;12.47;;
10847;SDS011;5477;48.806;9.154;2023-03-01T12:47:39;16.50;;;13.00;;
10847;SDS011;5477;48.806;9.154;2023-03-01T12:50:23;16.00;;;12.47;;
10847;SDS011;5477;48.806;9.154;2023-03-01T12:52:55;17.93;;;14.07;;
10847;SDS011;5477;48.806;9.154;2023-03-01T12:55:26;15.40;;;11.37;;
10847;SDS011;5477;48.806;9.154;2023-03-01T12:58:00;16.40;;;12.73;;
10847;SDS011;5477;48.806;9.154;2023-03-01T13:00:36;17.80;;;13.37;;
10847;SDS011;5477;48.806;9.154;2023-03-01T13:03:15;15.50;;;12.30;;
10847;SDS011;5477;48.806;9.154;2023-03-01T13:05:52;16.77;;;12.40;;
10847;SDS011;5477;48.806;9.154;2023-03-01T13:08:33;14.10;;;11.83;;
10847;SDS011;5477;48.806;9.154;2023-03-01T13:11:07;14.97;;;12.10;;
10847;SDS011;5477;48.806;9.154;2023-03-01T13:13:43;18.33;;;14.10;;
10847;SDS011;5477;48.806;9.154;2023-03-01T13:16:38;17.17;;;13.23;;
10847;SDS011;5477;48.806;9.154;2023-03-01T13:19:12;16.10;;;12.50;;
10847;SDS011;5477;48.806;9.154;2023-03-01T13:21:42;15.20;;;12.50;;
10847;SDS011;5477;48.806;9.154;2023-03-01T13:24:24;15.90;;;12.67;;
10847;SDS011;5477;48.806;9.154;2023-03-01T13:27:10;18.80;;;14.10;;
10847;SDS011;5477;48.806;9.154;2023-03-01T13:29:51;16.17;;;12.97;;
10847;SDS011;5477;48.806;9.154;2023-03-01T13:32:21;14.90;;;12.53;;
10847;SDS011;5477;48.806;9.154;2023-03-01T13:41:12;16.47;;;13.17;;
10847;SDS011;5477;48.806;9.154;2023-03-01T13:43:41;16.00;;;12.63;;
10847;SDS011;5477;48.806;9.154;2023-03-01T13:46:14;18.80;;;13.73;;
10847;SDS011;5477;48.806;9.154;2023-03-01T13:48:45;16.47;;;12.80;;
10847;SDS011;5477;48.806;9.154;2023-03-01T13:51:20;18.70;;;13.33;;
10847;SDS011;5477;48.806;9.154;2023-03-01T13:53:51;17.57;;;13.73;;
10847;SDS011;5477;48.806;9.154;2023-03-01T13:56:22;18.53;;;14.00;;
10847;SDS011;5477;48.806;9.154;2023-03-01T13:58:53;18.73;;;13.33;;
10847;SDS011;5477;48.806;9.154;2023-03-01T14:01:24;16.57;;;12.77;;
10847;SDS011;5477;48.806;9.154;2023-03-01T14:03:54;18.80;;;13.47;;
10847;SDS011;5477;48.806;9.154;2023-03-01T14:06:27;44.83;;;40.47;;
10847;SDS011;5477;48.806;9.154;2023-03-01T14:09:02;16.77;;;13.77;;
10847;SDS011;5477;48.806;9.154;2023-03-01T14:14:42;19.43;;;15.20;;
10847;SDS011;5477;48.806;9.154;2023-03-01T14:20:24;24.17;;;19.87;;
10847;SDS011;5477;48.806;9.154;2023-03-01T14:22:56;17.70;;;14.60;;
10847;SDS011;5477;48.806;9.154;2023-03-01T14:25:27;23.57;;;17.47;;
10847;SDS011;5477;48.806;9.154;2023-03-01T14:27:58;19.27;;;14.40;;
10847;SDS011;5477;48.806;9.154;2023-03-01T14:30:32;18.30;;;15.07;;
10847;SDS011;5477;48.806;9.154;2023-03-01T14:33:06;21.07;;;16.20;;
10847;SDS011;5477;48.806;9.154;2023-03-01T14:35:51;18.97;;;15.10;;
10847;SDS011;5477;48.806;9.154;2023-03-01T14:38:23;19.97;;;14.93;;
10847;SDS011;5477;48.806;9.154;2023-03-01T14:40:56;19.83;;;15.50;;
10847;SDS011;5477;48.806;9.154;2023-03-01T14:43:31;23.70;;;15.67;;
10847;SDS011;5477;48.806;9.154;2023-03-01T14:46:00;20.00;;;16.03;;
10847;SDS011;5477;48.806;9.154;2023-03-01T14:48:28;19.87;;;15.73;;
10847;SDS011;5477;48.806;9.154;2023-03-01T14:50:57;20.27;;;14.93;;
10847;SDS011;5477;48.806;9.154;2023-03-01T14:53:28;19.47;;;15.83;;
10847;SDS011;5477;48.806;9.154;2023-03-01T14:56:15;19.43;;;14.90;;
10847;SDS011;5477;48.806;9.154;2023-03-01T14:58:45;17.70;;;14.70;;
10847;SDS011;5477;48.806;9.154;2023-03-01T15:01:18;19.97;;;15.27;;
10847;SDS011;5477;48.806;9.154;2023-03-01T15:03:47;20.43;;;15.80;;
10847;SDS011;5477;48.806;9.154;2023-03-01T15:06:17;18.63;;;15.03;;
10847;SDS011;5477;48.806;9.154;2023-03-01T15:08:49;17.87;;;14.93;;
10847;SDS011;5477;48.806;9.154;2023-03-01T15:11:20;19.03;;;14.73;;
10847;SDS011;5477;48.806;9.154;2023-03-01T15:13:51;19.53;;;14.93;;
10847;SDS011;5477;48.806;9.154;2023-03-01T15:16:21;18.87;;;16.20;;
10847;SDS011;5477;48.806;9.154;2023-03-01T15:18:52;18.60;;;15.47;;